Time;durP1;ratioP1;P1;durP2;ratioP2;P2;SDS_P1;SDS_P2;PMS_P1;PMS_P2;Temp;Humidity;BMP_temperature;BMP_pressure;BME280_temperature;BME280_humidity;BME280_pressure;Samples;Min_cycle;Max_cycle;Signal;HPM_P1;HPM_P2
2022/05/04 00:01:52;;;;;;;;;;;;;;;;;;5094670;28;20006;-62
2022/05/04 00:04:17;;;;;;;;;;;;;;;;;;5093504;28;20318;-64
2022/05/04 00:06:43;;;;;;;;;;;;;;;;;;5094463;28;19912;-65
2022/05/04 00:09:09;;;;;;;;;;;;;;;;;;5093543;28;19912;-69
2022/05/04 00:11:35;;;;;;;;;;;;;;;;;;5093682;28;20253;-67
2022/05/04 00:14:01;;;;;;;;;;;;;;;;;;5092084;28;19916;-67
2022/05/04 00:16:27;;;;;;;;;;;;;;;;;;5092339;28;20364;-67
2022/05/04 00:18:54;;;;;;;;;;;;;;;;;;5092950;28;20344;-67
2022/05/04 00:21:19;;;;;;;;;;;;;;;;;;5091882;28;19975;-65
2022/05/04 00:23:45;;;;;;;;;;;;;;;;;;5093312;28;19924;-63
2022/05/04 00:26:11;;;;;;;;;;;;;;;;;;5093461;28;19916;-68
2022/05/04 00:28:37;;;;;;;;;;;;;;;;;;5092829;28;19912;-64
2022/05/04 00:31:04;;;;;;;;;;;;;;;;;;5092277;28;19999;-66
2022/05/04 00:33:30;;;;;;;;;;;;;;;;;;5093381;28;19915;-65
2022/05/04 00:35:56;;;;;;;;;;;;;;;;;;5094137;28;19958;-66
2022/05/04 00:38:22;;;;;;;;;;;;;;;;;;5092191;28;19969;-65
2022/05/04 00:40:48;;;;;;;;;;;;;;;;;;5084717;28;19908;-63
2022/05/04 00:43:14;;;;;;;;;;;;;;;;;;5093247;28;19912;-67
2022/05/04 00:45:40;;;;;;;;;;;;;;;;;;5092825;28;20011;-68
2022/05/04 00:48:06;;;;;;;;;;;;;;;;;;5092291;28;19938;-66
2022/05/04 00:50:32;;;;;;;;;;;;;;;;;;5092646;28;19925;-65
2022/05/04 00:52:58;;;;;;;;;;;;;;;;;;5092384;28;19912;-65
2022/05/04 00:55:24;;;;;;;;;;;;;;;;;;5092698;28;19951;-68
2022/05/04 01:00:35;;;;;;;;;;;;;;;;;;5092848;28;19915;-66
2022/05/04 01:03:01;;;;;;;;;;;;;;;;;;5092585;28;20007;-65
2022/05/04 01:05:27;;;;;;;;;;;;;;;;;;5093390;28;19919;-68
2022/05/04 01:07:53;;;;;;;;;;;;;;;;;;5091440;28;19973;-67
2022/05/04 01:10:18;;;;;;;;;;;;;;;;;;5093027;28;19912;-66
2022/05/04 01:12:44;;;;;;;;;;;;;;;;;;5092698;28;19961;-67
2022/05/04 01:15:10;;;;;;;;;;;;;;;;;;5092452;28;19958;-68
2022/05/04 01:17:36;;;;;;;;;;;;;;;;;;5092941;28;20276;-66
2022/05/04 01:20:02;;;;;;;;;;;;;;;;;;5091669;28;19994;-67
2022/05/04 01:22:28;;;;;;;;;;;;;;;;;;5090749;28;19912;-65
2022/05/04 01:24:54;;;;;;;;;;;;;;;;;;5092365;28;19934;-69
2022/05/04 01:27:20;;;;;;;;;;;;;;;;;;5091611;28;19920;-67
2022/05/04 01:29:47;;;;;;;;;;;;;;;;;;5092386;28;19908;-64
2022/05/04 01:32:13;;;;;;;;;;;;;;;;;;5108017;28;19916;-65
2022/05/04 01:34:39;;;;;;;;;;;;;;;;;;5091074;28;19926;-65
2022/05/04 01:37:05;;;;;;;;;;;;;;;;;;5091764;28;19912;-68
2022/05/04 01:39:30;;;;;;;;;;;;;;;;;;5092460;28;19928;-65
2022/05/04 01:42:02;;;;;;;;;;;;;;;;;;5092364;28;19912;-67
2022/05/04 01:44:28;;;;;;;;;;;;;;;;;;5090923;28;19916;-67
2022/05/04 01:46:54;;;;;;;;;;;;;;;;;;5090600;28;20586;-67
2022/05/04 01:49:20;;;;;;;;;;;;;;;;;;5090161;28;19931;-65
2022/05/04 01:51:46;;;;;;;;;;;;;;;;;;5091621;28;19912;-62
2022/05/04 01:54:12;;;;;;;;;;;;;;;;;;5091688;28;19947;-66
2022/05/04 01:56:38;;;;;;;;;;;;;;;;;;5091828;28;19918;-62
2022/05/04 01:59:04;;;;;;;;;;;;;;;;;;5091108;28;19955;-64
2022/05/04 02:01:30;;;;;;;;;;;;;;;;;;5091854;28;19915;-66
2022/05/04 02:03:56;;;;;;;;;;;;;;;;;;5091576;28;19919;-67
2022/05/04 02:06:22;;;;;;;;;;;;;;;;;;5090047;28;19920;-68
2022/05/04 02:08:48;;;;;;;;;;;;;;;;;;5089205;28;19912;-63
2022/05/04 02:11:13;;;;;;;;;;;;;;;;;;5092517;28;20069;-62
2022/05/04 02:13:39;;;;;;;;;;;;;;;;;;5092446;28;19919;-64
2022/05/04 02:16:05;;;;;;;;;;;;;;;;;;5091593;28;20360;-64
2022/05/04 02:18:31;;;;;;;;;;;;;;;;;;5091188;28;19920;-63
2022/05/04 02:20:59;;;;;;;;;;;;;;;;;;5092155;28;20334;-67
2022/05/04 02:23:25;;;;;;;;;;;;;;;;;;5106704;28;19912;-66
2022/05/04 02:25:51;;;;;;;;;;;;;;;;;;5091708;28;20267;-66
2022/05/04 02:28:18;;;;;;;;;;;;;;;;;;5090862;28;19922;-63
2022/05/04 02:30:44;;;;;;;;;;;;;;;;;;5090893;28;19912;-62
2022/05/04 02:33:10;;;;;;;;;;;;;;;;;;5091421;28;20411;-65
2022/05/04 02:38:21;;;;;;;;;;;;;;;;;;5091643;28;20384;-66
2022/05/04 02:40:47;;;;;;;;;;;;;;;;;;5091995;28;19908;-63
2022/05/04 02:43:13;;;;;;;;;;;;;;;;;;5091396;28;19914;-63
2022/05/04 02:45:44;;;;;;;;;;;;;;;;;;5091406;28;19942;-64
2022/05/04 02:48:09;;;;;;;;;;;;;;;;;;5090329;28;19962;-62
2022/05/04 02:50:44;;;;;;;;;;;;;;;;;;5090876;28;19912;-64
2022/05/04 02:53:10;;;;;;;;;;;;;;;;;;5090729;28;19954;-66
2022/05/04 02:55:36;;;;;;;;;;;;;;;;;;5091851;28;19947;-65
2022/05/04 02:58:02;;;;;;;;;;;;;;;;;;5090563;28;19938;-67
2022/05/04 03:00:28;;;;;;;;;;;;;;;;;;5090942;28;19915;-67
2022/05/04 03:02:54;;;;;;;;;;;;;;;;;;5089872;28;19916;-63
2022/05/04 03:05:20;;;;;;;;;;;;;;;;;;5089451;28;19918;-69
2022/05/04 03:07:46;;;;;;;;;;;;;;;;;;5090955;28;20280;-69
2022/05/04 03:10:13;;;;;;;;;;;;;;;;;;5093243;28;19912;-68
2022/05/04 03:12:39;;;;;;;;;;;;;;;;;;5094394;28;19922;-67
2022/05/04 03:15:09;;;;;;;;;;;;;;;;;;5095538;28;19952;-68
2022/05/04 03:17:37;;;;;;;;;;;;;;;;;;5092722;28;19912;-65
2022/05/04 03:20:04;;;;;;;;;;;;;;;;;;5093194;28;20009;-64
2022/05/04 03:22:32;;;;;;;;;;;;;;;;;;5092709;28;20272;-70
2022/05/04 03:25:01;;;;;;;;;;;;;;;;;;5093768;28;20326;-69
2022/05/04 03:27:27;;;;;;;;;;;;;;;;;;5094466;28;19942;-66
2022/05/04 03:29:53;;;;;;;;;;;;;;;;;;5093381;28;20435;-67
2022/05/04 03:32:20;;;;;;;;;;;;;;;;;;5093089;28;20050;-65
2022/05/04 03:34:47;;;;;;;;;;;;;;;;;;5095666;28;19957;-64
2022/05/04 03:37:14;;;;;;;;;;;;;;;;;;5094542;28;20397;-66
2022/05/04 03:39:40;;;;;;;;;;;;;;;;;;5093658;28;19966;-65
2022/05/04 03:42:07;;;;;;;;;;;;;;;;;;5095735;28;19912;-68
2022/05/04 03:44:33;;;;;;;;;;;;;;;;;;5095031;28;19925;-65
2022/05/04 03:46:59;;;;;;;;;;;;;;;;;;5093885;28;19923;-67
2022/05/04 03:49:27;;;;;;;;;;;;;;;;;;5092727;28;20261;-67
2022/05/04 03:51:53;;;;;;;;;;;;;;;;;;5094396;28;19952;-67
2022/05/04 03:54:19;;;;;;;;;;;;;;;;;;5093220;28;19957;-67
2022/05/04 03:56:47;;;;;;;;;;;;;;;;;;5093240;28;19912;-66
2022/05/04 03:59:13;;;;;;;;;;;;;;;;;;5093570;28;20435;-66
2022/05/04 04:01:39;;;;;;;;;;;;;;;;;;5093971;28;20003;-67
2022/05/04 04:04:05;;;;;;;;;;;;;;;;;;5094579;28;19908;-68
2022/05/04 04:06:32;;;;;;;;;;;;;;;;;;5093851;28;19916;-66
2022/05/04 04:08:58;;;;;;;;;;;;;;;;;;5093793;28;19908;-66
2022/05/04 04:11:24;;;;;;;;;;;;;;;;;;5094621;28;19911;-66
2022/05/04 04:13:51;;;;;;;;;;;;;;;;;;5094575;28;20268;-67
2022/05/04 04:16:17;;;;;;;;;;;;;;;;;;5093721;28;19916;-69
2022/05/04 04:18:43;;;;;;;;;;;;;;;;;;5092562;28;19927;-68
2022/05/04 04:23:53;;;;;;;;;;;;;;;;;;5087910;28;20268;-66
2022/05/04 04:26:19;;;;;;;;;;;;;;;;;;5092505;28;19916;-64
2022/05/04 04:28:45;;;;;;;;;;;;;;;;;;5093569;28;19908;-66
2022/05/04 04:31:11;;;;;;;;;;;;;;;;;;5093725;28;20346;-65
2022/05/04 04:33:37;;;;;;;;;;;;;;;;;;5092411;28;19955;-67
2022/05/04 04:36:03;;;;;;;;;;;;;;;;;;5092983;28;19919;-68
2022/05/04 04:38:29;;;;;;;;;;;;;;;;;;5093395;28;19912;-67
2022/05/04 04:40:55;;;;;;;;;;;;;;;;;;5090301;28;19915;-65
2022/05/04 04:43:21;;;;;;;;;;;;;;;;;;5095089;28;20299;-68
2022/05/04 04:45:46;;;;;;;;;;;;;;;;;;5090946;28;20360;-68
2022/05/04 04:48:13;;;;;;;;;;;;;;;;;;5093187;28;19965;-66
2022/05/04 04:50:39;;;;;;;;;;;;;;;;;;5093295;28;19952;-63
2022/05/04 04:53:05;;;;;;;;;;;;;;;;;;5096829;28;19912;-68
2022/05/04 04:55:31;;;;;;;;;;;;;;;;;;5115410;28;19950;-67
2022/05/04 04:57:57;;;;;;;;;;;;;;;;;;5101093;28;20338;-68
2022/05/04 05:00:24;;;;;;;;;;;;;;;;;;5095069;28;20368;-67
2022/05/04 05:02:50;;;;;;;;;;;;;;;;;;5096089;28;19976;-66
2022/05/04 05:05:16;;;;;;;;;;;;;;;;;;5101490;28;20392;-66
2022/05/04 05:07:42;;;;;;;;;;;;;;;;;;5093268;28;19961;-67
2022/05/04 05:10:08;;;;;;;;;;;;;;;;;;5080584;28;20268;-67
2022/05/04 05:12:34;;;;;;;;;;;;;;;;;;5073084;28;20365;-66
2022/05/04 05:17:45;;;;;;;;;;;;;;;;;;5074207;28;19962;-67
2022/05/04 05:20:11;;;;;;;;;;;;;;;;;;5093332;28;19994;-65
2022/05/04 05:22:36;;;;;;;;;;;;;;;;;;5092806;28;20395;-67
2022/05/04 05:25:03;;;;;;;;;;;;;;;;;;5092750;28;20006;-64
2022/05/04 05:27:29;;;;;;;;;;;;;;;;;;5094183;28;19919;-66
2022/05/04 05:29:55;;;;;;;;;;;;;;;;;;5093513;28;20007;-67
2022/05/04 05:32:21;;;;;;;;;;;;;;;;;;5092665;28;19918;-64
2022/05/04 05:34:47;;;;;;;;;;;;;;;;;;5094118;28;19908;-68
2022/05/04 05:37:13;;;;;;;;;;;;;;;;;;5092548;28;20003;-68
2022/05/04 05:39:39;;;;;;;;;;;;;;;;;;5092443;28;20276;-64
2022/05/04 05:42:05;;;;;;;;;;;;;;;;;;5092848;28;20003;-68
2022/05/04 05:44:31;;;;;;;;;;;;;;;;;;5092912;28;19999;-66
2022/05/04 05:46:57;;;;;;;;;;;;;;;;;;5094029;28;19912;-65
2022/05/04 05:49:23;;;;;;;;;;;;;;;;;;5093409;28;19974;-67
2022/05/04 05:51:49;;;;;;;;;;;;;;;;;;5092688;28;20407;-69
2022/05/04 05:54:14;;;;;;;;;;;;;;;;;;5092066;28;19908;-66
2022/05/04 05:56:40;;;;;;;;;;;;;;;;;;5092653;28;20010;-67
2022/05/04 05:59:06;;;;;;;;;;;;;;;;;;5091887;28;20365;-64
2022/05/04 06:01:32;;;;;;;;;;;;;;;;;;5092680;28;19913;-65
2022/05/04 06:03:58;;;;;;;;;;;;;;;;;;5093899;28;20045;-66
2022/05/04 06:06:24;;;;;;;;;;;;;;;;;;5092597;28;20015;-64
2022/05/04 06:08:50;;;;;;;;;;;;;;;;;;5091390;28;19909;-66
2022/05/04 06:11:16;;;;;;;;;;;;;;;;;;5092455;28;19908;-68
2022/05/04 06:13:42;;;;;;;;;;;;;;;;;;5092447;28;19908;-64
2022/05/04 06:16:08;;;;;;;;;;;;;;;;;;5093873;28;19985;-67
2022/05/04 06:18:34;;;;;;;;;;;;;;;;;;5093528;28;19904;-66
2022/05/04 06:21:00;;;;;;;;;;;;;;;;;;5093478;28;19947;-70
2022/05/04 06:23:26;;;;;;;;;;;;;;;;;;5092341;28;20350;-67
2022/05/04 06:25:52;;;;;;;;;;;;;;;;;;5092123;28;19912;-67
2022/05/04 06:28:17;;;;;;;;;;;;;;;;;;5092094;28;19919;-70
2022/05/04 06:36:13;;;;;;;;;;;;;;;;;;5093620;28;19965;-68
2022/05/04 06:38:39;;;;;;;;;;;;;;;;;;5089956;28;19916;-67
2022/05/04 06:41:05;;;;;;;;;;;;;;;;;;5093527;28;19908;-67
2022/05/04 06:43:31;;;;;;;;;;;;;;;;;;5093446;28;19915;-66
2022/05/04 06:45:57;;;;;;;;;;;;;;;;;;5095186;28;19919;-68
2022/05/04 06:48:23;;;;;;;;;;;;;;;;;;5100217;28;19912;-66
2022/05/04 06:50:49;;;;;;;;;;;;;;;;;;5096105;28;19965;-64
2022/05/04 06:53:15;;;;;;;;;;;;;;;;;;5094528;28;19908;-69
2022/05/04 06:55:41;;;;;;;;;;;;;;;;;;5117713;28;19919;-62
2022/05/04 06:58:07;;;;;;;;;;;;;;;;;;5096164;28;19935;-62
2022/05/04 07:00:32;;;;;;;;;;;;;;;;;;5088059;28;19980;-67
2022/05/04 07:02:58;;;;;;;;;;;;;;;;;;5103662;28;20262;-67
2022/05/04 07:05:24;;;;;;;;;;;;;;;;;;5084620;28;19920;-68
2022/05/04 07:07:50;;;;;;;;;;;;;;;;;;5091708;28;19933;-65
2022/05/04 07:10:16;;;;;;;;;;;;;;;;;;5092149;28;20459;-63
2022/05/04 07:12:42;;;;;;;;;;;;;;;;;;5095809;28;19919;-66
2022/05/04 07:15:08;;;;;;;;;;;;;;;;;;5094309;28;19908;-64
2022/05/04 07:17:34;;;;;;;;;;;;;;;;;;5094096;28;20007;-67
2022/05/04 07:20:00;;;;;;;;;;;;;;;;;;5093842;28;19923;-67
2022/05/04 07:22:26;;;;;;;;;;;;;;;;;;5094307;28;20011;-67
2022/05/04 07:24:52;;;;;;;;;;;;;;;;;;5092414;28;19955;-67
2022/05/04 07:27:18;;;;;;;;;;;;;;;;;;5094019;28;19912;-66
2022/05/04 07:29:45;;;;;;;;;;;;;;;;;;5093478;28;19990;-65
2022/05/04 07:32:11;;;;;;;;;;;;;;;;;;5085149;28;19920;-68
2022/05/04 07:34:37;;;;;;;;;;;;;;;;;;5093586;28;19965;-67
2022/05/04 07:37:03;;;;;;;;;;;;;;;;;;5081072;28;20581;-69
2022/05/04 07:42:26;;;;;;;;;;;;;;;;;;5073559;28;20744;-70
2022/05/04 07:44:52;;;;;;;;;;;;;;;;;;5074827;28;20424;-65
2022/05/04 07:47:18;;;;;;;;;;;;;;;;;;5082383;28;19947;-68
2022/05/04 07:49:44;;;;;;;;;;;;;;;;;;5112651;28;19920;-68
2022/05/04 07:52:10;;;;;;;;;;;;;;;;;;5103530;28;19919;-67
2022/05/04 07:54:36;;;;;;;;;;;;;;;;;;5093564;28;19908;-65
2022/05/04 07:57:02;;;;;;;;;;;;;;;;;;5093430;28;20546;-67
2022/05/04 07:59:28;;;;;;;;;;;;;;;;;;5093005;28;19958;-66
2022/05/04 08:04:38;;;;;;;;;;;;;;;;;;5094758;28;19962;-66
2022/05/04 08:07:04;;;;;;;;;;;;;;;;;;5094151;28;19912;-66
2022/05/04 08:09:34;;;;;;;;;;;;;;;;;;5091489;28;19916;-67
2022/05/04 08:12:00;;;;;;;;;;;;;;;;;;5110318;28;19954;-70
2022/05/04 08:14:26;;;;;;;;;;;;;;;;;;5113590;28;19955;-66
2022/05/04 08:16:52;;;;;;;;;;;;;;;;;;5104579;28;19961;-70
2022/05/04 08:19:18;;;;;;;;;;;;;;;;;;5092695;28;20006;-69
2022/05/04 08:21:43;;;;;;;;;;;;;;;;;;5105947;28;19916;-67
2022/05/04 08:24:09;;;;;;;;;;;;;;;;;;5096461;28;19912;-65
2022/05/04 08:26:35;;;;;;;;;;;;;;;;;;5091108;28;19919;-68
2022/05/04 08:29:01;;;;;;;;;;;;;;;;;;5092358;28;19912;-67
2022/05/04 08:31:28;;;;;;;;;;;;;;;;;;5092931;28;20311;-68
2022/05/04 08:33:54;;;;;;;;;;;;;;;;;;5092881;28;19920;-69
2022/05/04 08:36:19;;;;;;;;;;;;;;;;;;5090062;28;20352;-70
2022/05/04 08:38:45;;;;;;;;;;;;;;;;;;5091374;28;19958;-71
2022/05/04 08:41:11;;;;;;;;;;;;;;;;;;5086801;28;19927;-68
2022/05/04 08:43:39;;;;;;;;;;;;;;;;;;5091098;28;19919;-68
2022/05/04 08:46:05;;;;;;;;;;;;;;;;;;5093767;28;19920;-70
2022/05/04 08:48:34;;;;;;;;;;;;;;;;;;5091791;28;20349;-67
2022/05/04 08:51:03;;;;;;;;;;;;;;;;;;5092490;28;20330;-65
2022/05/04 08:53:29;;;;;;;;;;;;;;;;;;5092754;28;20007;-66
2022/05/04 08:55:55;;;;;;;;;;;;;;;;;;5095123;28;20050;-65
2022/05/04 08:58:21;;;;;;;;;;;;;;;;;;5112412;28;19912;-65
2022/05/04 09:00:47;;;;;;;;;;;;;;;;;;5105351;28;19984;-69
2022/05/04 09:03:13;;;;;;;;;;;;;;;;;;5096218;28;20271;-68
2022/05/04 09:05:41;;;;;;;;;;;;;;;;;;5096618;28;19918;-66
2022/05/04 09:08:09;;;;;;;;;;;;;;;;;;5111582;28;19912;-66
2022/05/04 09:10:35;;;;;;;;;;;;;;;;;;5092872;28;19908;-66
2022/05/04 09:13:02;;;;;;;;;;;;;;;;;;5090925;28;19928;-67
2022/05/04 09:15:28;;;;;;;;;;;;;;;;;;5091395;28;19916;-67
2022/05/04 09:17:54;;;;;;;;;;;;;;;;;;5091143;28;19934;-68
2022/05/04 09:23:04;;;;;;;;;;;;;;;;;;5093237;28;20496;-65
2022/05/04 09:25:30;;;;;;;;;;;;;;;;;;5091914;28;19931;-67
2022/05/04 09:27:56;;;;;;;;;;;;;;;;;;5090059;28;19951;-67
2022/05/04 09:30:22;;;;;;;;;;;;;;;;;;5091202;28;19912;-65
2022/05/04 09:32:48;;;;;;;;;;;;;;;;;;5091756;28;19915;-64
2022/05/04 09:35:14;;;;;;;;;;;;;;;;;;5090279;28;19916;-64
2022/05/04 09:45:55;;;;;;;;;;;;;;;;;;5091143;28;20401;-68
2022/05/04 09:48:20;;;;;;;;;;;;;;;;;;5090065;28;19920;-64
2022/05/04 09:50:46;;;;;;;;;;;;;;;;;;5090792;28;19931;-65
2022/05/04 09:53:14;;;;;;;;;;;;;;;;;;5091104;28;19986;-66
2022/05/04 09:55:40;;;;;;;;;;;;;;;;;;5091081;28;20045;-65
2022/05/04 09:58:09;;;;;;;;;;;;;;;;;;5090982;28;20370;-66
2022/05/04 10:00:35;;;;;;;;;;;;;;;;;;5090732;28;19940;-67
2022/05/04 10:03:01;;;;;;;;;;;;;;;;;;5090838;28;19963;-67
2022/05/04 10:05:27;;;;;;;;;;;;;;;;;;5091048;28;20230;-67
2022/05/04 10:07:53;;;;;;;;;;;;;;;;;;5091178;28;19927;-66
2022/05/04 10:10:20;;;;;;;;;;;;;;;;;;5090876;28;19969;-67
2022/05/04 10:12:46;;;;;;;;;;;;;;;;;;5091062;28;20654;-63
2022/05/04 10:15:12;;;;;;;;;;;;;;;;;;5091259;28;19912;-68
2022/05/04 10:17:38;;;;;;;;;;;;;;;;;;5090904;28;19916;-66
2022/05/04 10:20:05;;;;;;;;;;;;;;;;;;5092385;28;20366;-68
2022/05/04 10:22:31;;;;;;;;;;;;;;;;;;5095505;28;19912;-66
2022/05/04 10:24:57;;;;;;;;;;;;;;;;;;5095311;28;19965;-67
2022/05/04 10:27:25;;;;;;;;;;;;;;;;;;5095106;28;20035;-66
2022/05/04 10:32:36;;;;;;;;;;;;;;;;;;5096290;28;20408;-64
2022/05/04 10:35:02;;;;;;;;;;;;;;;;;;5094626;28;20709;-65
2022/05/04 10:37:28;;;;;;;;;;;;;;;;;;5094009;28;19920;-65
2022/05/04 10:39:54;;;;;;;;;;;;;;;;;;5094033;28;19908;-66
2022/05/04 10:42:20;;;;;;;;;;;;;;;;;;5094601;28;19914;-67
2022/05/04 10:44:46;;;;;;;;;;;;;;;;;;5094541;28;19915;-68
2022/05/04 10:47:11;;;;;;;;;;;;;;;;;;5094450;28;20349;-67
2022/05/04 10:49:39;;;;;;;;;;;;;;;;;;5093904;28;19916;-66
2022/05/04 10:52:04;;;;;;;;;;;;;;;;;;5094291;28;19908;-65
2022/05/04 10:54:31;;;;;;;;;;;;;;;;;;5094630;28;20438;-67
2022/05/04 10:56:57;;;;;;;;;;;;;;;;;;5094310;28;19959;-64
2022/05/04 10:59:24;;;;;;;;;;;;;;;;;;5093996;28;19920;-66
2022/05/04 11:01:49;;;;;;;;;;;;;;;;;;5094575;28;19911;-67
2022/05/04 11:04:15;;;;;;;;;;;;;;;;;;5093781;28;20007;-65
2022/05/04 11:06:41;;;;;;;;;;;;;;;;;;5092837;28;19994;-65
2022/05/04 11:09:07;;;;;;;;;;;;;;;;;;5092860;28;19912;-68
2022/05/04 11:11:33;;;;;;;;;;;;;;;;;;5093558;28;19915;-68
2022/05/04 11:13:59;;;;;;;;;;;;;;;;;;5093970;28;20392;-68
2022/05/04 11:16:26;;;;;;;;;;;;;;;;;;5094148;28;19908;-67
2022/05/04 11:18:52;;;;;;;;;;;;;;;;;;5093624;28;20372;-68
2022/05/04 11:21:18;;;;;;;;;;;;;;;;;;5094345;28;19954;-68
2022/05/04 11:23:44;;;;;;;;;;;;;;;;;;5094033;28;20367;-69
2022/05/04 11:26:10;;;;;;;;;;;;;;;;;;5094083;28;19916;-66
2022/05/04 11:28:36;;;;;;;;;;;;;;;;;;5093813;28;19916;-68
2022/05/04 11:31:02;;;;;;;;;;;;;;;;;;5093691;28;20368;-68
2022/05/04 11:33:28;;;;;;;;;;;;;;;;;;5094113;28;20014;-66
2022/05/04 11:35:54;;;;;;;;;;;;;;;;;;5088944;28;19954;-69
2022/05/04 11:38:20;;;;;;;;;;;;;;;;;;5073493;28;19915;-70
2022/05/04 11:40:46;;;;;;;;;;;;;;;;;;5073424;28;19908;-71
2022/05/04 11:43:12;;;;;;;;;;;;;;;;;;5073713;28;19935;-68
2022/05/04 11:45:38;;;;;;;;;;;;;;;;;;5073442;28;20265;-69
2022/05/04 11:48:04;;;;;;;;;;;;;;;;;;5073266;28;19919;-68
2022/05/04 11:50:30;;;;;;;;;;;;;;;;;;5073247;28;19908;-68
2022/05/04 11:52:56;;;;;;;;;;;;;;;;;;5074165;28;19920;-70
2022/05/04 11:55:22;;;;;;;;;;;;;;;;;;5092451;28;19916;-68
2022/05/04 11:57:48;;;;;;;;;;;;;;;;;;5093502;28;19961;-67
2022/05/04 12:00:14;;;;;;;;;;;;;;;;;;5080448;28;19920;-69
2022/05/04 12:02:39;;;;;;;;;;;;;;;;;;5071688;28;19915;-67
2022/05/04 12:05:05;;;;;;;;;;;;;;;;;;5088242;28;20335;-70
2022/05/04 12:07:31;;;;;;;;;;;;;;;;;;5096150;28;19920;-70
2022/05/04 12:09:57;;;;;;;;;;;;;;;;;;5100688;28;19935;-66
2022/05/04 12:12:23;;;;;;;;;;;;;;;;;;5080617;28;19943;-70
2022/05/04 12:14:49;;;;;;;;;;;;;;;;;;5073038;28;19961;-69
2022/05/04 12:17:15;;;;;;;;;;;;;;;;;;5072946;28;20421;-68
2022/05/04 12:19:41;;;;;;;;;;;;;;;;;;5072428;28;20425;-67
2022/05/04 12:22:07;;;;;;;;;;;;;;;;;;5074114;28;20054;-67
2022/05/04 12:24:33;;;;;;;;;;;;;;;;;;5088766;28;19920;-68
2022/05/04 12:26:59;;;;;;;;;;;;;;;;;;5092495;28;20268;-66
2022/05/04 12:34:55;;;;;;;;;;;;;;;;;;5094105;28;19919;-70
2022/05/04 12:37:24;;;;;;;;;;;;;;;;;;5076196;28;19999;-67
2022/05/04 12:39:50;;;;;;;;;;;;;;;;;;5073594;28;20451;-69
2022/05/04 12:42:17;;;;;;;;;;;;;;;;;;5090234;28;20368;-69
2022/05/04 12:44:43;;;;;;;;;;;;;;;;;;5092034;28;20608;-68
2022/05/04 12:47:09;;;;;;;;;;;;;;;;;;5092124;28;19918;-67
2022/05/04 12:49:35;;;;;;;;;;;;;;;;;;5091958;28;19916;-70
2022/05/04 12:52:01;;;;;;;;;;;;;;;;;;5092427;28;20353;-68
2022/05/04 12:54:27;;;;;;;;;;;;;;;;;;5092350;28;19912;-64
2022/05/04 12:56:53;;;;;;;;;;;;;;;;;;5092133;28;20322;-66
2022/05/04 12:59:20;;;;;;;;;;;;;;;;;;5091494;28;20003;-68
2022/05/04 13:01:46;;;;;;;;;;;;;;;;;;5092357;28;19908;-66
2022/05/04 13:04:13;;;;;;;;;;;;;;;;;;5092057;28;19965;-68
2022/05/04 13:06:39;;;;;;;;;;;;;;;;;;5092112;28;19912;-70
2022/05/04 13:09:05;;;;;;;;;;;;;;;;;;5091508;28;19961;-71
2022/05/04 13:11:31;;;;;;;;;;;;;;;;;;5090992;28;19973;-70
2022/05/04 13:13:57;;;;;;;;;;;;;;;;;;5091453;28;19921;-69
2022/05/04 13:16:23;;;;;;;;;;;;;;;;;;5094373;28;19915;-71
2022/05/04 13:18:49;;;;;;;;;;;;;;;;;;5110826;28;19918;-68
2022/05/04 13:21:15;;;;;;;;;;;;;;;;;;5112241;28;20257;-70
2022/05/04 13:23:44;;;;;;;;;;;;;;;;;;5104519;28;19974;-70
2022/05/04 13:26:11;;;;;;;;;;;;;;;;;;5091597;28;19915;-68
2022/05/04 13:28:37;;;;;;;;;;;;;;;;;;5089777;28;19908;-69
2022/05/04 13:31:04;;;;;;;;;;;;;;;;;;5081855;28;20064;-70
2022/05/04 13:33:31;;;;;;;;;;;;;;;;;;5076348;28;19912;-72
2022/05/04 13:35:57;;;;;;;;;;;;;;;;;;5101220;28;19911;-69
2022/05/04 13:38:23;;;;;;;;;;;;;;;;;;5108564;28;19919;-67
2022/05/04 13:40:49;;;;;;;;;;;;;;;;;;5110313;28;19907;-66
2022/05/04 13:43:15;;;;;;;;;;;;;;;;;;5111452;28;19904;-65
2022/05/04 13:45:42;;;;;;;;;;;;;;;;;;5111658;28;19915;-68
2022/05/04 13:48:08;;;;;;;;;;;;;;;;;;5110187;28;20387;-68
2022/05/04 13:53:19;;;;;;;;;;;;;;;;;;5112860;28;19914;-65
2022/05/04 13:55:45;;;;;;;;;;;;;;;;;;5111371;28;19908;-65
2022/05/04 13:58:11;;;;;;;;;;;;;;;;;;5111387;28;20456;-67
2022/05/04 14:00:37;;;;;;;;;;;;;;;;;;5111118;28;19916;-69
2022/05/04 14:03:02;;;;;;;;;;;;;;;;;;5111294;28;19912;-64
2022/05/04 14:05:28;;;;;;;;;;;;;;;;;;5110999;28;19923;-67
2022/05/04 14:07:54;;;;;;;;;;;;;;;;;;5111064;28;19912;-69
2022/05/04 14:10:20;;;;;;;;;;;;;;;;;;5110873;28;19908;-63
2022/05/04 14:12:46;;;;;;;;;;;;;;;;;;5111119;28;19961;-66
2022/05/04 14:15:12;;;;;;;;;;;;;;;;;;5111219;28;20383;-70
2022/05/04 14:17:38;;;;;;;;;;;;;;;;;;5111154;28;19984;-68
2022/05/04 14:20:04;;;;;;;;;;;;;;;;;;5110774;28;20249;-68
2022/05/04 14:22:30;;;;;;;;;;;;;;;;;;5111301;28;19915;-68
2022/05/04 14:24:56;;;;;;;;;;;;;;;;;;5111427;28;19908;-66
2022/05/04 14:27:22;;;;;;;;;;;;;;;;;;5111335;28;20365;-73
2022/05/04 14:29:47;;;;;;;;;;;;;;;;;;5111054;28;19918;-66
2022/05/04 14:32:13;;;;;;;;;;;;;;;;;;5111126;28;20397;-67
2022/05/04 14:34:39;;;;;;;;;;;;;;;;;;5111148;28;19908;-66
2022/05/04 14:37:05;;;;;;;;;;;;;;;;;;5110549;28;20271;-69
2022/05/04 14:39:31;;;;;;;;;;;;;;;;;;5110700;28;19920;-65
2022/05/04 14:41:57;;;;;;;;;;;;;;;;;;5110942;28;20276;-67
2022/05/04 14:44:23;;;;;;;;;;;;;;;;;;5110964;28;20007;-69
2022/05/04 14:46:49;;;;;;;;;;;;;;;;;;5111003;28;19923;-68
2022/05/04 14:49:15;;;;;;;;;;;;;;;;;;5110007;28;20360;-67
2022/05/04 14:51:41;;;;;;;;;;;;;;;;;;5110348;28;19908;-64
2022/05/04 14:54:07;;;;;;;;;;;;;;;;;;5110380;28;19961;-67
2022/05/04 14:56:33;;;;;;;;;;;;;;;;;;5110319;28;20360;-66
2022/05/04 14:58:58;;;;;;;;;;;;;;;;;;5109751;28;20019;-66
2022/05/04 15:01:24;;;;;;;;;;;;;;;;;;5110175;28;19965;-67
2022/05/04 15:06:35;;;;;;;;;;;;;;;;;;5113774;28;20006;-65
2022/05/04 15:09:01;;;;;;;;;;;;;;;;;;5112817;28;19994;-68
2022/05/04 15:11:27;;;;;;;;;;;;;;;;;;5113270;28;19954;-67
2022/05/04 15:13:53;;;;;;;;;;;;;;;;;;5113304;28;20617;-67
2022/05/04 15:16:19;;;;;;;;;;;;;;;;;;5113601;28;19908;-67
2022/05/04 15:18:45;;;;;;;;;;;;;;;;;;5113159;28;19990;-65
2022/05/04 15:21:11;;;;;;;;;;;;;;;;;;5113050;28;20003;-65
2022/05/04 15:23:37;;;;;;;;;;;;;;;;;;5113500;28;19915;-66
2022/05/04 15:26:04;;;;;;;;;;;;;;;;;;5113360;28;19972;-66
2022/05/04 15:28:30;;;;;;;;;;;;;;;;;;5112996;28;19918;-69
2022/05/04 15:30:56;;;;;;;;;;;;;;;;;;5113176;28;20362;-65
2022/05/04 15:33:22;;;;;;;;;;;;;;;;;;5113325;28;19908;-67
2022/05/04 15:35:48;;;;;;;;;;;;;;;;;;5113322;28;19908;-66
2022/05/04 15:38:14;;;;;;;;;;;;;;;;;;5113132;28;19939;-64
2022/05/04 15:40:40;;;;;;;;;;;;;;;;;;5112601;28;20002;-67
2022/05/04 15:43:06;;;;;;;;;;;;;;;;;;5112995;28;19912;-66
2022/05/04 15:45:32;;;;;;;;;;;;;;;;;;5113012;28;20007;-65
2022/05/04 15:47:58;;;;;;;;;;;;;;;;;;5043838;28;1798870;-65
2022/05/04 15:50:24;;;;;;;;;;;;;;;;;;5074740;28;19954;-66
2022/05/04 15:52:50;;;;;;;;;;;;;;;;;;5074644;28;19995;-62
2022/05/04 15:55:16;;;;;;;;;;;;;;;;;;5074625;28;19915;-68
2022/05/04 15:57:44;;;;;;;;;;;;;;;;;;5074717;28;19908;-64
2022/05/04 16:00:10;;;;;;;;;;;;;;;;;;5074061;28;19962;-65
2022/05/04 16:05:22;;;;;;;;;;;;;;;;;;5075799;28;19996;-68
2022/05/04 16:07:48;;;;;;;;;;;;;;;;;;5074394;28;19920;-65
2022/05/04 16:10:13;;;;;;;;;;;;;;;;;;5073812;28;19908;-63
2022/05/04 16:12:41;;;;;;;;;;;;;;;;;;5074235;28;20352;-66
2022/05/04 16:15:07;;;;;;;;;;;;;;;;;;5074249;28;19909;-65
2022/05/04 16:23:03;;;;;;;;;;;;;;;;;;5094253;28;20311;-65
2022/05/04 16:25:29;;;;;;;;;;;;;;;;;;5075171;28;19912;-65
2022/05/04 16:27:54;;;;;;;;;;;;;;;;;;5086766;28;19920;-67
2022/05/04 16:30:20;;;;;;;;;;;;;;;;;;5072380;28;20269;-67
2022/05/04 16:32:46;;;;;;;;;;;;;;;;;;5072633;28;19955;-66
2022/05/04 16:35:12;;;;;;;;;;;;;;;;;;5071647;28;19913;-65
2022/05/04 16:37:38;;;;;;;;;;;;;;;;;;5072554;28;19915;-69
2022/05/04 16:40:04;;;;;;;;;;;;;;;;;;5071248;28;19911;-69
2022/05/04 16:42:30;;;;;;;;;;;;;;;;;;5072510;28;19966;-68
2022/05/04 16:44:56;;;;;;;;;;;;;;;;;;5072228;28;19904;-68
2022/05/04 16:47:22;;;;;;;;;;;;;;;;;;5071580;28;19925;-68
2022/05/04 16:49:48;;;;;;;;;;;;;;;;;;5071790;28;20371;-64
2022/05/04 16:52:14;;;;;;;;;;;;;;;;;;5072410;28;19982;-65
2022/05/04 16:54:40;;;;;;;;;;;;;;;;;;5072456;28;19908;-64
2022/05/04 16:57:06;;;;;;;;;;;;;;;;;;5072184;28;20284;-70
2022/05/04 16:59:32;;;;;;;;;;;;;;;;;;5071848;28;19908;-68
2022/05/04 17:02:00;;;;;;;;;;;;;;;;;;5072129;28;19908;-67
2022/05/04 17:04:25;;;;;;;;;;;;;;;;;;5072235;28;19915;-69
2022/05/04 17:06:51;;;;;;;;;;;;;;;;;;5071957;28;19916;-67
2022/05/04 17:09:17;;;;;;;;;;;;;;;;;;5071559;28;20250;-69
2022/05/04 17:11:43;;;;;;;;;;;;;;;;;;5071992;28;20027;-69
2022/05/04 17:14:09;;;;;;;;;;;;;;;;;;5072009;28;20524;-69
2022/05/04 17:16:35;;;;;;;;;;;;;;;;;;5073102;28;19916;-69
2022/05/04 17:19:01;;;;;;;;;;;;;;;;;;5071274;28;19909;-68
2022/05/04 17:21:27;;;;;;;;;;;;;;;;;;5073197;28;20288;-69
2022/05/04 17:23:53;;;;;;;;;;;;;;;;;;5071701;28;19965;-65
2022/05/04 17:26:19;;;;;;;;;;;;;;;;;;5072960;28;19912;-68
2022/05/04 17:28:45;;;;;;;;;;;;;;;;;;5071140;28;20312;-67
2022/05/04 17:31:11;;;;;;;;;;;;;;;;;;5071487;28;19972;-66
2022/05/04 17:39:06;;;;;;;;;;;;;;;;;;5072372;28;19954;-65